Time;durP1;ratioP1;P1;durP2;ratioP2;P2;SDS_P1;SDS_P2;PMS_P1;PMS_P2;Temp;Humidity;BMP_temperature;BMP_pressure;BME280_temperature;BME280_humidity;BME280_pressure;Samples;Min_cycle;Max_cycle;Signal;HPM_P1;HPM_P2
2022/10/06 00:00:35;;;;;;;1.58;1.00;;;17.60;67.90;;;;;;5072723;28;20058;-70
2022/10/06 00:03:02;;;;;;;1.30;1.00;;;17.60;67.80;;;;;;5072972;28;20055;-72
2022/10/06 00:05:29;;;;;;;1.88;1.10;;;17.60;67.80;;;;;;5072571;28;20052;-70
2022/10/06 00:07:57;;;;;;;1.48;1.00;;;17.60;67.80;;;;;;5072934;28;20049;-70
2022/10/06 00:10:23;;;;;;;1.73;1.10;;;17.60;67.80;;;;;;5072288;28;20067;-70
2022/10/06 00:12:51;;;;;;;1.92;1.10;;;17.60;67.80;;;;;;5072826;28;20078;-72
2022/10/06 00:15:19;;;;;;;1.30;1.20;;;17.60;67.80;;;;;;5073763;28;20056;-70
2022/10/06 00:17:46;;;;;;;2.15;1.20;;;17.60;67.80;;;;;;5072451;28;20136;-70
2022/10/06 00:20:13;;;;;;;1.10;1.00;;;17.60;67.90;;;;;;5073029;28;20420;-71
2022/10/06 00:22:41;;;;;;;1.33;1.23;;;17.60;67.90;;;;;;5072442;28;20491;-71
2022/10/06 00:25:10;;;;;;;1.27;1.10;;;17.50;67.90;;;;;;5072228;28;20059;-70
2022/10/06 00:27:37;;;;;;;1.10;1.00;;;17.50;67.90;;;;;;5072357;28;20481;-70
2022/10/06 00:30:05;;;;;;;1.25;1.00;;;17.50;67.90;;;;;;5072163;28;20052;-70
2022/10/06 00:32:31;;;;;;;1.95;1.15;;;17.50;67.90;;;;;;5072261;28;20056;-70
2022/10/06 00:34:58;;;;;;;1.10;1.00;;;17.50;67.90;;;;;;5073093;28;20401;-70
2022/10/06 00:37:25;;;;;;;1.10;1.00;;;17.50;67.90;;;;;;5071969;28;20053;-72
2022/10/06 00:39:52;;;;;;;1.38;1.10;;;17.50;67.90;;;;;;5071886;28;20405;-70
2022/10/06 00:42:24;;;;;;;1.58;1.23;;;17.50;67.90;;;;;;5071983;28;20056;-70
2022/10/06 00:44:51;;;;;;;1.40;1.10;;;17.50;67.90;;;;;;5072079;28;20064;-70
2022/10/06 00:47:18;;;;;;;1.10;0.90;;;17.50;67.90;;;;;;5071937;28;20413;-71
2022/10/06 00:49:45;;;;;;;2.03;1.20;;;17.50;67.90;;;;;;5071761;28;20054;-70
2022/10/06 00:52:13;;;;;;;2.15;1.00;;;17.50;67.90;;;;;;5071421;28;20063;-70
2022/10/06 00:54:40;;;;;;;1.52;0.90;;;17.50;67.90;;;;;;5071750;28;20056;-70
2022/10/06 00:57:07;;;;;;;1.83;1.00;;;17.50;68.00;;;;;;5071595;28;20055;-70
2022/10/06 00:59:35;;;;;;;1.10;1.00;;;17.50;67.90;;;;;;5071784;28;20052;-72
2022/10/06 01:02:03;;;;;;;1.08;0.98;;;17.50;68.50;;;;;;5072296;28;20048;-72
2022/10/06 01:04:30;;;;;;;1.65;1.00;;;17.50;67.90;;;;;;5071525;28;20063;-71
2022/10/06 01:06:57;;;;;;;1.13;0.90;;;17.50;67.90;;;;;;5071648;28;20049;-70
2022/10/06 01:09:24;;;;;;;1.70;1.00;;;17.50;67.90;;;;;;5071308;28;20052;-70
2022/10/06 01:11:53;;;;;;;1.20;1.00;;;17.50;67.90;;;;;;5071368;28;20063;-70
2022/10/06 01:14:20;;;;;;;1.63;1.10;;;17.50;67.90;;;;;;5071107;28;20060;-70
2022/10/06 01:16:50;;;;;;;1.00;0.90;;;17.50;67.90;;;;;;5071136;28;20048;-71
2022/10/06 01:19:21;;;;;;;1.52;1.00;;;17.40;67.90;;;;;;5071206;28;20066;-70
2022/10/06 01:21:48;;;;;;;1.00;0.90;;;17.40;67.90;;;;;;5071015;28;20052;-70
2022/10/06 01:24:16;;;;;;;1.27;1.00;;;17.40;67.90;;;;;;5071398;28;20135;-70
2022/10/06 01:26:43;;;;;;;1.63;1.10;;;17.80;68.10;;;;;;5071375;28;20135;-70
2022/10/06 01:29:10;;;;;;;1.30;1.02;;;17.40;67.90;;;;;;5071110;28;20060;-70
2022/10/06 01:31:37;;;;;;;1.67;1.00;;;17.40;68.00;;;;;;5070741;28;20053;-71
2022/10/06 01:34:03;;;;;;;1.17;0.90;;;17.40;67.90;;;;;;5071283;28;20060;-70
2022/10/06 01:36:30;;;;;;;2.10;0.98;;;17.40;67.90;;;;;;5071018;28;20452;-70
2022/10/06 01:38:57;;;;;;;0.82;0.82;;;17.40;68.00;;;;;;5070619;28;20063;-72
2022/10/06 01:41:26;;;;;;;1.33;1.00;;;17.40;68.00;;;;;;5070881;28;20052;-70
2022/10/06 01:43:53;;;;;;;1.25;1.00;;;17.40;68.50;;;;;;5071070;28;20062;-72
2022/10/06 01:46:20;;;;;;;1.60;1.10;;;17.40;68.00;;;;;;5071045;28;20398;-70
2022/10/06 01:48:46;;;;;;;1.27;1.00;;;17.40;68.00;;;;;;5070906;28;20084;-70
2022/10/06 01:51:14;;;;;;;1.08;0.82;;;17.40;68.00;;;;;;5070717;28;20056;-72
2022/10/06 01:53:41;;;;;;;1.15;0.90;;;17.40;68.00;;;;;;5070200;28;20060;-71
2022/10/06 01:56:08;;;;;;;0.90;0.85;;;17.40;68.00;;;;;;5071588;28;20378;-70
2022/10/06 01:58:36;;;;;;;1.80;1.17;;;17.40;68.00;;;;;;5070277;28;20052;-71
2022/10/06 02:01:04;;;;;;;1.00;0.90;;;17.40;67.90;;;;;;5053979;28;20059;-70
2022/10/06 02:03:31;;;;;;;1.50;1.00;;;17.40;68.00;;;;;;5070849;28;20677;-70
2022/10/06 02:05:59;;;;;;;0.98;0.90;;;17.40;68.00;;;;;;5070776;28;20045;-70
2022/10/06 02:08:26;;;;;;;1.10;0.82;;;17.40;67.90;;;;;;5070556;28;20413;-71
2022/10/06 02:10:52;;;;;;;1.88;1.00;;;17.30;67.90;;;;;;5071289;28;20044;-70
2022/10/06 02:13:20;;;;;;;0.85;0.77;;;17.40;68.00;;;;;;5070701;28;20059;-70
2022/10/06 02:15:48;;;;;;;1.67;1.02;;;17.30;67.90;;;;;;5070571;28;20057;-70
2022/10/06 02:18:14;;;;;;;0.80;0.80;;;17.30;67.90;;;;;;5070605;28;20416;-70
2022/10/06 02:20:41;;;;;;;1.30;1.00;;;17.40;68.00;;;;;;5070066;28;20143;-70
2022/10/06 02:23:08;;;;;;;1.00;0.90;;;17.30;67.90;;;;;;5070442;28;20049;-70
2022/10/06 02:25:35;;;;;;;0.98;0.90;;;17.30;67.90;;;;;;5070633;28;20059;-71
2022/10/06 02:28:02;;;;;;;1.35;0.90;;;17.30;67.90;;;;;;5070515;28;20052;-70
2022/10/06 02:30:29;;;;;;;2.28;1.10;;;17.30;68.00;;;;;;5070309;28;20417;-71
2022/10/06 02:32:57;;;;;;;1.20;1.00;;;17.30;67.90;;;;;;5070564;28;20048;-70
2022/10/06 02:35:24;;;;;;;1.15;0.88;;;17.30;67.90;;;;;;5070426;28;20060;-71
2022/10/06 02:37:50;;;;;;;1.33;0.90;;;17.30;68.00;;;;;;5069964;28;20525;-72
2022/10/06 02:40:17;;;;;;;1.50;0.98;;;17.30;68.00;;;;;;5069888;28;20053;-70
2022/10/06 02:42:44;;;;;;;2.00;1.00;;;17.30;68.00;;;;;;5070442;28;20059;-70
2022/10/06 02:45:11;;;;;;;1.00;0.90;;;17.30;68.00;;;;;;5071193;28;20122;-71
2022/10/06 02:47:37;;;;;;;1.13;0.90;;;17.30;68.00;;;;;;5070394;28;20088;-70
2022/10/06 02:50:07;;;;;;;1.05;0.95;;;17.30;68.00;;;;;;5070039;28;20082;-70
2022/10/06 02:52:34;;;;;;;1.10;0.90;;;17.30;68.00;;;;;;5071238;28;20412;-70
2022/10/06 02:55:02;;;;;;;1.27;0.95;;;17.30;68.00;;;;;;5070216;28;20060;-70
2022/10/06 02:57:29;;;;;;;2.15;0.82;;;17.30;68.00;;;;;;5073931;28;20066;-72
2022/10/06 02:59:56;;;;;;;1.02;0.90;;;17.20;67.90;;;;;;5073659;28;20486;-70
2022/10/06 03:02:23;;;;;;;2.08;0.93;;;17.30;68.00;;;;;;5073789;28;20060;-70
2022/10/06 03:04:49;;;;;;;0.98;0.90;;;17.30;68.00;;;;;;5074113;28;20049;-71
2022/10/06 03:07:17;;;;;;;1.15;0.95;;;17.20;67.90;;;;;;5073716;28;20078;-70
2022/10/06 03:09:44;;;;;;;1.38;0.93;;;17.20;67.90;;;;;;5073409;28;20064;-70
2022/10/06 03:12:11;;;;;;;0.85;0.80;;;17.30;68.50;;;;;;5073608;28;20139;-70
2022/10/06 03:14:37;;;;;;;2.50;1.15;;;17.20;67.90;;;;;;5073927;28;20501;-71
2022/10/06 03:17:04;;;;;;;1.77;1.00;;;17.20;68.00;;;;;;5073663;28;20048;-70
2022/10/06 03:19:31;;;;;;;1.40;1.00;;;17.20;68.00;;;;;;5073710;28;20391;-70
2022/10/06 03:21:58;;;;;;;1.83;1.20;;;17.20;68.00;;;;;;5073211;28;20056;-70
2022/10/06 03:24:26;;;;;;;0.70;0.70;;;17.20;68.00;;;;;;5073722;28;20056;-70
2022/10/06 03:26:53;;;;;;;1.08;0.90;;;17.20;68.00;;;;;;5073693;28;20406;-71
2022/10/06 03:29:19;;;;;;;1.60;0.90;;;17.20;68.00;;;;;;5073297;28;20088;-71
2022/10/06 03:31:46;;;;;;;1.40;1.00;;;17.20;68.00;;;;;;5073326;28;20059;-71
2022/10/06 03:34:14;;;;;;;1.08;0.98;;;17.20;68.00;;;;;;5073052;28;20067;-71
2022/10/06 03:36:41;;;;;;;1.10;0.80;;;17.20;68.00;;;;;;5073183;28;20055;-71
2022/10/06 03:39:07;;;;;;;1.55;0.90;;;17.20;68.00;;;;;;5073387;28;20060;-71
2022/10/06 03:41:37;;;;;;;0.95;0.90;;;17.20;68.00;;;;;;5073105;28;20497;-71
2022/10/06 03:44:04;;;;;;;1.63;0.88;;;17.20;68.00;;;;;;5073112;28;20052;-70
2022/10/06 03:46:31;;;;;;;1.38;0.90;;;17.20;68.00;;;;;;5073234;28;20056;-71
2022/10/06 03:48:59;;;;;;;1.10;0.90;;;17.20;68.00;;;;;;5074169;28;20436;-71
2022/10/06 03:51:28;;;;;;;1.65;0.90;;;17.10;68.00;;;;;;5073731;28;20049;-70
2022/10/06 03:53:55;;;;;;;1.80;0.90;;;17.10;68.00;;;;;;5073173;28;20060;-70
2022/10/06 03:56:23;;;;;;;1.63;0.93;;;17.20;68.00;;;;;;5073115;28;20425;-70
2022/10/06 03:58:51;;;;;;;1.38;1.00;;;17.10;68.00;;;;;;5072982;28;20361;-70
2022/10/06 04:01:19;;;;;;;1.25;0.85;;;17.10;67.90;;;;;;5072856;28;20062;-70
2022/10/06 04:03:46;;;;;;;1.50;0.90;;;17.10;68.00;;;;;;5072935;28;20056;-70
2022/10/06 04:06:16;;;;;;;1.23;0.80;;;17.10;68.00;;;;;;5072613;28;20071;-70
2022/10/06 04:08:43;;;;;;;1.08;0.80;;;17.10;68.00;;;;;;5071852;28;20049;-70
2022/10/06 04:11:11;;;;;;;2.03;1.00;;;17.10;68.00;;;;;;5072844;28;20107;-71
2022/10/06 04:13:38;;;;;;;1.15;0.93;;;17.10;68.00;;;;;;5072347;28;20052;-70
2022/10/06 04:16:13;;;;;;;1.40;0.98;;;17.10;68.00;;;;;;5069044;28;20703;-69
2022/10/06 04:18:40;;;;;;;1.95;0.85;;;17.10;67.90;;;;;;5071769;28;20467;-70
2022/10/06 04:21:07;;;;;;;1.73;0.95;;;17.10;68.00;;;;;;5072401;28;20060;-70
2022/10/06 04:23:35;;;;;;;1.73;0.93;;;17.10;68.00;;;;;;5072494;28;20139;-72
2022/10/06 04:26:02;;;;;;;1.35;1.00;;;17.10;67.90;;;;;;5072260;28;20109;-71
2022/10/06 04:28:29;;;;;;;2.08;0.90;;;17.10;68.00;;;;;;5072325;28;20482;-70
2022/10/06 04:30:57;;;;;;;1.83;0.90;;;17.10;68.00;;;;;;5072314;28;20052;-70
2022/10/06 04:33:25;;;;;;;1.23;0.95;;;17.10;68.00;;;;;;5071797;28;20058;-71
2022/10/06 04:35:58;;;;;;;2.08;0.85;;;17.10;68.00;;;;;;5072345;28;20064;-71
2022/10/06 04:38:26;;;;;;;2.72;1.00;;;17.00;67.90;;;;;;5071699;28;21661;-71
2022/10/06 04:40:53;;;;;;;1.42;0.93;;;17.10;68.00;;;;;;5073171;28;20059;-71
2022/10/06 04:43:20;;;;;;;2.22;1.15;;;17.10;68.00;;;;;;5073132;28;20044;-71
2022/10/06 04:45:46;;;;;;;1.77;1.00;;;17.00;67.90;;;;;;5072017;28;20092;-71
2022/10/06 04:48:15;;;;;;;1.33;0.90;;;17.10;68.00;;;;;;5071090;28;20048;-71
2022/10/06 04:50:43;;;;;;;2.63;0.90;;;17.00;67.90;;;;;;5070845;28;20056;-71
2022/10/06 04:53:10;;;;;;;1.48;0.80;;;17.00;67.90;;;;;;5071998;28;20504;-71
2022/10/06 04:55:37;;;;;;;0.90;0.80;;;17.00;68.00;;;;;;5071776;28;20060;-71
2022/10/06 04:58:05;;;;;;;2.13;0.90;;;17.00;67.90;;;;;;5071905;28;20079;-71
2022/10/06 05:00:31;;;;;;;1.15;0.80;;;17.10;68.00;;;;;;5071475;28;20433;-70
2022/10/06 05:02:58;;;;;;;1.02;0.70;;;17.00;67.90;;;;;;5071333;28;20055;-70
2022/10/06 05:05:25;;;;;;;0.80;0.70;;;17.00;67.90;;;;;;5071863;28;20131;-70
2022/10/06 05:07:53;;;;;;;1.58;0.80;;;17.00;67.90;;;;;;5071732;28;20444;-71
2022/10/06 05:10:19;;;;;;;1.15;0.75;;;17.00;67.90;;;;;;5071463;28;20084;-71
2022/10/06 05:12:46;;;;;;;1.75;0.90;;;17.00;67.90;;;;;;5072687;28;20048;-70
2022/10/06 05:15:14;;;;;;;1.40;1.00;;;17.00;67.90;;;;;;5071668;28;20064;-71
2022/10/06 05:17:41;;;;;;;3.97;1.40;;;17.00;67.80;;;;;;5070788;28;20048;-70
2022/10/06 05:20:09;;;;;;;1.45;0.88;;;17.00;67.80;;;;;;5070354;28;20056;-71
2022/10/06 05:22:36;;;;;;;1.25;0.88;;;17.00;67.80;;;;;;5071194;28;20092;-71
2022/10/06 05:25:05;;;;;;;2.00;1.00;;;16.90;67.80;;;;;;5070869;28;20058;-71
2022/10/06 05:27:31;;;;;;;1.70;0.90;;;17.00;67.90;;;;;;5071411;28;20459;-72
2022/10/06 05:29:58;;;;;;;1.35;0.80;;;16.90;67.80;;;;;;5070853;28;20052;-71
2022/10/06 05:32:25;;;;;;;1.13;0.80;;;17.00;67.80;;;;;;5071330;28;20140;-71
2022/10/06 05:34:52;;;;;;;1.17;0.77;;;16.90;67.80;;;;;;5071607;28;20060;-73
2022/10/06 05:37:19;;;;;;;2.22;0.90;;;16.90;67.70;;;;;;5071143;28;20052;-71
2022/10/06 05:39:46;;;;;;;0.70;0.70;;;17.00;67.80;;;;;;5072151;28;20453;-71
2022/10/06 05:42:14;;;;;;;1.52;0.70;;;16.90;67.70;;;;;;5070801;28;20052;-72
2022/10/06 05:44:41;;;;;;;1.73;0.93;;;16.90;67.70;;;;;;5070927;28;20454;-71
2022/10/06 05:47:07;;;;;;;1.70;1.00;;;16.90;67.70;;;;;;5070454;28;20044;-72
2022/10/06 05:49:34;;;;;;;1.77;0.77;;;16.90;67.70;;;;;;5072058;28;20049;-71
2022/10/06 05:52:01;;;;;;;1.13;0.75;;;16.90;67.70;;;;;;5070338;28;20056;-71
2022/10/06 05:54:27;;;;;;;1.30;0.80;;;16.90;67.70;;;;;;5072102;28;20072;-71
2022/10/06 05:56:54;;;;;;;1.23;0.75;;;16.90;67.70;;;;;;5070855;28;20497;-71
2022/10/06 05:59:22;;;;;;;1.40;0.90;;;16.90;67.60;;;;;;5071589;28;20053;-70
2022/10/06 06:01:50;;;;;;;1.98;0.95;;;16.90;67.60;;;;;;5070195;28;20048;-71
2022/10/06 06:04:17;;;;;;;1.45;0.95;;;16.90;67.60;;;;;;5070756;28;20056;-71
2022/10/06 06:06:44;;;;;;;2.33;0.90;;;16.90;67.60;;;;;;5051218;28;20412;-71
2022/10/06 06:09:11;;;;;;;1.30;0.93;;;16.90;67.60;;;;;;5051433;28;20520;-71
2022/10/06 06:11:39;;;;;;;1.75;1.25;;;16.90;68.10;;;;;;5051356;28;20059;-71
2022/10/06 06:14:07;;;;;;;2.30;1.00;;;16.90;67.60;;;;;;5050683;28;20059;-70
2022/10/06 06:16:34;;;;;;;1.65;0.90;;;16.90;67.60;;;;;;5064628;28;20052;-70
2022/10/06 06:19:01;;;;;;;1.77;0.90;;;16.90;67.60;;;;;;5069583;28;20607;-71
2022/10/06 06:21:28;;;;;;;1.48;0.88;;;16.90;67.60;;;;;;5069992;28;20478;-70
2022/10/06 06:23:55;;;;;;;1.60;0.90;;;16.90;67.60;;;;;;5070082;28;20051;-70
2022/10/06 06:26:23;;;;;;;2.65;1.08;;;16.90;67.60;;;;;;5066906;28;20062;-71
2022/10/06 06:28:50;;;;;;;1.52;0.80;;;16.90;67.60;;;;;;5067513;28;20378;-70
2022/10/06 06:31:19;;;;;;;0.85;0.75;;;16.90;68.10;;;;;;5069518;28;20063;-73
2022/10/06 06:33:48;;;;;;;1.02;0.70;;;16.90;67.60;;;;;;5074431;28;20114;-70
2022/10/06 06:36:15;;;;;;;1.58;0.80;;;16.90;67.50;;;;;;5074354;28;20532;-73
2022/10/06 06:38:42;;;;;;;1.90;1.00;;;16.90;67.50;;;;;;5075561;28;20052;-73
2022/10/06 06:41:15;;;;;;;1.92;0.95;;;16.90;67.50;;;;;;5076285;28;20138;-73
2022/10/06 06:43:42;;;;;;;2.22;0.90;;;16.90;67.50;;;;;;5075878;28;20417;-70
2022/10/06 06:46:09;;;;;;;0.90;0.70;;;16.90;67.60;;;;;;5057465;28;20079;-71
2022/10/06 06:48:36;;;;;;;1.38;0.80;;;16.90;67.50;;;;;;5075452;28;20094;-70
2022/10/06 06:51:05;;;;;;;2.13;1.00;;;16.90;67.50;;;;;;5074230;28;20052;-71
2022/10/06 06:53:31;;;;;;;2.15;1.10;;;16.90;67.50;;;;;;5074285;28;20139;-72
2022/10/06 06:55:58;;;;;;;2.03;1.05;;;17.00;67.50;;;;;;5057629;28;20424;-73
2022/10/06 06:58:25;;;;;;;3.33;1.00;;;17.00;67.50;;;;;;5075688;28;20063;-71
2022/10/06 07:00:52;;;;;;;3.72;1.10;;;17.00;67.40;;;;;;5073812;28;20493;-71
2022/10/06 07:03:19;;;;;;;3.47;1.20;;;17.00;67.30;;;;;;5074640;28;20059;-71
2022/10/06 07:05:46;;;;;;;2.35;1.05;;;17.10;67.40;;;;;;5072916;28;20063;-71
2022/10/06 07:08:15;;;;;;;2.22;1.08;;;17.10;67.30;;;;;;5073666;28;20063;-71
2022/10/06 07:10:43;;;;;;;3.08;1.10;;;17.20;67.30;;;;;;5073331;28;20058;-69
2022/10/06 07:13:14;;;;;;;4.25;1.20;;;17.20;67.20;;;;;;5073465;28;20048;-72
2022/10/06 07:26:42;;;;;;;2.50;1.10;;;17.30;67.10;;;;;;5074662;28;20508;-70
2022/10/06 07:29:09;;;;;;;3.25;1.30;;;17.30;67.10;;;;;;5073529;28;20140;-70
2022/10/06 07:31:36;;;;;;;3.00;1.25;;;17.40;67.10;;;;;;5073427;28;20052;-70
2022/10/06 07:34:03;;;;;;;3.00;1.20;;;17.40;67.00;;;;;;5073439;28;20052;-71
2022/10/06 07:36:30;;;;;;;2.13;0.95;;;17.50;67.10;;;;;;5074757;28;20375;-70
2022/10/06 07:38:58;;;;;;;2.55;1.10;;;17.50;67.00;;;;;;5073016;28;20631;-69
2022/10/06 07:41:25;;;;;;;3.25;1.35;;;17.50;67.00;;;;;;5073209;28;20052;-72
2022/10/06 07:43:52;;;;;;;1.90;1.10;;;17.50;66.90;;;;;;5072171;28;20148;-70
2022/10/06 07:46:19;;;;;;;2.35;1.08;;;17.50;67.40;;;;;;5073647;28;20083;-70
2022/10/06 07:48:47;;;;;;;2.80;1.20;;;17.50;66.90;;;;;;5073439;28;20374;-71
2022/10/06 07:51:15;;;;;;;2.95;1.15;;;17.50;66.90;;;;;;5073127;28;20053;-71
2022/10/06 07:53:43;;;;;;;2.35;1.13;;;17.60;66.90;;;;;;5073078;28;20064;-71
2022/10/06 07:56:14;;;;;;;2.67;0.95;;;17.60;66.80;;;;;;5074033;28;20048;-71
2022/10/06 07:58:43;;;;;;;2.90;0.98;;;17.60;66.80;;;;;;5073038;28;20503;-70
2022/10/06 08:01:11;;;;;;;1.92;1.10;;;17.60;66.80;;;;;;5072607;28;20052;-70
2022/10/06 08:03:38;;;;;;;2.13;1.10;;;17.60;66.80;;;;;;5072438;28;20044;-71
2022/10/06 08:06:05;;;;;;;2.58;1.10;;;17.60;66.70;;;;;;5073900;28;20053;-72
2022/10/06 08:08:35;;;;;;;3.17;1.00;;;17.60;66.70;;;;;;5073856;28;20127;-72
2022/10/06 08:11:02;;;;;;;2.33;1.20;;;17.60;66.70;;;;;;5073607;28;20106;-70
2022/10/06 08:13:31;;;;;;;2.42;1.15;;;17.60;66.70;;;;;;5074182;28;20135;-70
2022/10/06 08:16:03;;;;;;;3.90;1.27;;;17.60;66.70;;;;;;5072657;28;20106;-70
2022/10/06 08:18:30;;;;;;;2.25;1.20;;;17.60;66.70;;;;;;5074035;28;20049;-69
2022/10/06 08:20:57;;;;;;;2.28;1.20;;;17.60;66.70;;;;;;5072514;28;20048;-69
2022/10/06 08:23:24;;;;;;;4.00;1.40;;;17.60;66.70;;;;;;5072150;28;20048;-70
2022/10/06 08:25:53;;;;;;;2.38;1.10;;;17.60;66.70;;;;;;5072523;28;20049;-69
2022/10/06 08:28:21;;;;;;;2.35;1.00;;;17.70;66.80;;;;;;5073495;28;20051;-69
2022/10/06 08:30:50;;;;;;;1.63;1.00;;;17.60;66.70;;;;;;5071570;28;20114;-70
2022/10/06 08:33:16;;;;;;;1.55;1.02;;;17.70;66.70;;;;;;5073378;28;20135;-70
2022/10/06 08:35:43;;;;;;;1.38;1.00;;;17.60;66.70;;;;;;5071822;28;20063;-71
2022/10/06 08:38:11;;;;;;;3.58;1.30;;;17.60;66.70;;;;;;5071764;28;20076;-70
2022/10/06 08:40:37;;;;;;;2.45;1.13;;;17.60;66.70;;;;;;5071977;28;20476;-70
2022/10/06 08:43:04;;;;;;;3.53;1.35;;;17.60;66.70;;;;;;5070501;28;20052;-70
2022/10/06 08:45:34;;;;;;;3.00;1.20;;;17.60;66.70;;;;;;5069403;28;20054;-71
2022/10/06 08:48:03;;;;;;;1.90;1.17;;;17.60;66.70;;;;;;5072074;28;20060;-70
2022/10/06 08:50:34;;;;;;;3.00;1.25;;;17.60;66.70;;;;;;5071152;28;20052;-70
2022/10/06 08:53:04;;;;;;;5.43;1.58;;;17.60;66.80;;;;;;5070922;28;20147;-70
2022/10/06 08:55:34;;;;;;;2.75;1.20;;;17.60;66.80;;;;;;5071459;28;20057;-72
2022/10/06 08:58:27;;;;;;;2.53;1.15;;;17.60;66.70;;;;;;5073154;28;20048;-70
2022/10/06 09:00:55;;;;;;;5.07;1.20;;;17.60;66.70;;;;;;5073021;28;20106;-70
2022/10/06 09:03:26;;;;;;;3.33;0.90;;;17.60;66.70;;;;;;5072869;28;20079;-70
2022/10/06 09:05:53;;;;;;;1.92;1.00;;;17.60;66.70;;;;;;5072051;28;20056;-72
2022/10/06 09:08:29;;;;;;;1.33;0.90;;;17.60;66.70;;;;;;5071124;28;20048;-70
2022/10/06 09:11:03;;;;;;;1.75;1.25;;;17.60;66.70;;;;;;5071455;28;20058;-72
2022/10/06 09:13:32;;;;;;;2.42;1.00;;;17.60;66.70;;;;;;5072852;28;20048;-71
2022/10/06 09:15:59;;;;;;;1.63;0.90;;;17.60;66.80;;;;;;5071823;28;20059;-72
2022/10/06 09:18:30;;;;;;;1.38;0.85;;;17.60;66.80;;;;;;5071475;28;20052;-71
2022/10/06 09:20:58;;;;;;;3.72;1.00;;;17.60;66.70;;;;;;5072264;28;20513;-70
2022/10/06 09:26:08;;;;;;;2.25;1.10;;;17.60;66.70;;;;;;5072331;28;20131;-69
2022/10/06 09:28:35;;;;;;;2.90;1.20;;;17.50;66.70;;;;;;5071431;28;20467;-69
2022/10/06 09:31:03;;;;;;;2.75;1.10;;;17.50;66.70;;;;;;5070934;28;20072;-70
2022/10/06 09:33:33;;;;;;;1.88;0.90;;;17.50;66.70;;;;;;5072270;28;20044;-70
2022/10/06 09:36:05;;;;;;;4.85;1.30;;;17.50;66.70;;;;;;5072110;28;20412;-70
2022/10/06 09:38:46;;;;;;;3.05;1.20;;;17.50;66.70;;;;;;5072283;28;20102;-70
2022/10/06 09:41:13;;;;;;;1.80;1.00;;;17.50;66.60;;;;;;5072138;28;20101;-70
2022/10/06 09:43:40;;;;;;;4.78;1.17;;;17.50;66.70;;;;;;5071247;28;20059;-70
2022/10/06 09:46:20;;;;;;;1.42;0.80;;;17.50;66.70;;;;;;5071227;28;20045;-70
2022/10/06 09:48:48;;;;;;;2.55;1.10;;;17.50;66.60;;;;;;5072186;28;20417;-70
2022/10/06 09:51:15;;;;;;;4.45;1.10;;;17.50;66.70;;;;;;5071850;28;20048;-70
2022/10/06 09:53:42;;;;;;;2.97;1.10;;;17.50;66.70;;;;;;5072180;28;20402;-70
2022/10/06 09:56:13;;;;;;;2.65;1.10;;;17.50;66.70;;;;;;5072329;28;20455;-70
2022/10/06 09:58:39;;;;;;;3.30;1.10;;;17.50;66.70;;;;;;5070822;28;20045;-69
2022/10/06 10:01:07;;;;;;;2.60;1.08;;;17.50;66.70;;;;;;5070803;28;20058;-72
2022/10/06 10:03:42;;;;;;;2.42;0.98;;;17.50;66.70;;;;;;5071184;28;20064;-70
2022/10/06 10:06:21;;;;;;;1.50;1.00;;;17.50;66.70;;;;;;5070402;28;20419;-72
2022/10/06 10:08:48;;;;;;;2.58;1.15;;;17.50;66.70;;;;;;5070863;28;20048;-69
2022/10/06 10:14:03;;;;;;;2.75;1.05;;;17.50;66.70;;;;;;5070818;28;20139;-70
2022/10/06 10:16:33;;;;;;;3.85;1.00;;;17.50;66.70;;;;;;5070586;28;20128;-69
2022/10/06 10:19:00;;;;;;;2.28;1.20;;;17.50;66.60;;;;;;5070694;28;20426;-71
2022/10/06 10:21:29;;;;;;;3.05;1.10;;;17.50;66.60;;;;;;5071546;28;20508;-69
2022/10/06 10:23:56;;;;;;;2.75;1.13;;;17.50;66.60;;;;;;5070480;28;20490;-70
2022/10/06 10:26:27;;;;;;;2.05;1.00;;;17.50;66.60;;;;;;5071776;28;20044;-69
2022/10/06 10:29:02;;;;;;;3.45;1.10;;;17.50;66.60;;;;;;5070877;28;20496;-70
2022/10/06 10:31:33;;;;;;;2.22;1.13;;;17.50;66.60;;;;;;5070083;28;20057;-72
2022/10/06 10:34:04;;;;;;;3.20;1.55;;;17.50;66.60;;;;;;5071640;28;20051;-69
2022/10/06 10:36:34;;;;;;;2.33;1.08;;;17.40;66.60;;;;;;5070124;28;20056;-70
2022/10/06 10:39:01;;;;;;;2.75;1.20;;;17.50;66.60;;;;;;5070638;28;20059;-71
2022/10/06 10:41:29;;;;;;;3.42;1.20;;;17.40;66.60;;;;;;5070490;28;20120;-71
2022/10/06 10:43:59;;;;;;;2.17;1.10;;;17.40;66.60;;;;;;5071188;28;20057;-71
2022/10/06 10:46:28;;;;;;;2.40;1.38;;;17.50;66.60;;;;;;5068633;28;20044;-73
2022/10/06 10:48:57;;;;;;;2.20;1.08;;;17.50;66.70;;;;;;5070893;28;20519;-72
2022/10/06 10:51:26;;;;;;;3.17;1.20;;;17.50;66.70;;;;;;5068234;28;20041;-71
2022/10/06 10:53:55;;;;;;;3.15;1.42;;;17.60;66.70;;;;;;5071356;28;20059;-70
2022/10/06 10:56:23;;;;;;;3.47;1.38;;;17.60;66.70;;;;;;5070267;28;20062;-71
2022/10/06 10:58:52;;;;;;;3.88;1.30;;;17.60;66.70;;;;;;5071265;28;20059;-69
2022/10/06 11:01:25;;;;;;;2.50;1.00;;;17.70;66.70;;;;;;5069732;28;20083;-72
2022/10/06 11:03:56;;;;;;;2.72;1.20;;;17.70;66.60;;;;;;5069922;28;20135;-73
2022/10/06 11:06:34;;;;;;;1.73;1.00;;;17.70;66.60;;;;;;5070288;28;20760;-71
2022/10/06 11:09:03;;;;;;;2.30;1.10;;;17.80;66.50;;;;;;5070677;28;20428;-71
2022/10/06 11:11:44;;;;;;;4.70;1.30;;;17.80;66.60;;;;;;5067161;28;20059;-71
2022/10/06 11:14:17;;;;;;;3.47;1.25;;;17.90;66.50;;;;;;5067056;28;20056;-73
2022/10/06 11:16:45;;;;;;;3.42;1.20;;;17.90;66.50;;;;;;5070418;28;20057;-72
2022/10/06 11:19:20;;;;;;;3.22;1.33;;;17.90;66.40;;;;;;5074193;28;20044;-72
2022/10/06 11:21:50;;;;;;;4.18;1.40;;;17.90;66.40;;;;;;5073004;28;20059;-71
2022/10/06 11:24:22;;;;;;;4.32;1.40;;;17.90;66.30;;;;;;5073631;28;20063;-71
2022/10/06 11:26:58;;;;;;;3.63;1.25;;;18.00;66.40;;;;;;5070810;28;20048;-73
2022/10/06 11:29:31;;;;;;;2.05;1.02;;;18.00;66.30;;;;;;5073164;28;20402;-72
2022/10/06 11:32:04;;;;;;;2.67;1.20;;;18.00;66.20;;;;;;5072958;28;20515;-71
2022/10/06 11:34:31;;;;;;;3.20;1.30;;;18.00;66.20;;;;;;5071467;28;20071;-71
2022/10/06 11:37:01;;;;;;;3.50;1.52;;;18.00;66.20;;;;;;5073345;28;20508;-72
2022/10/06 11:39:31;;;;;;;3.22;1.20;;;18.00;66.10;;;;;;5073724;28;20055;-70
2022/10/06 11:42:03;;;;;;;2.40;1.15;;;18.00;66.10;;;;;;5074353;28;20052;-72
2022/10/06 11:44:33;;;;;;;2.10;1.13;;;18.00;66.10;;;;;;5073503;28;20063;-70
2022/10/06 11:47:01;;;;;;;2.72;1.00;;;18.00;66.10;;;;;;5074638;28;20047;-69
2022/10/06 11:49:53;;;;;;;4.28;1.30;;;18.00;66.10;;;;;;5072874;28;20501;-72
2022/10/06 11:52:43;;;;;;;3.42;1.17;;;18.00;66.00;;;;;;5049707;28;20134;-70
2022/10/06 11:55:17;;;;;;;2.92;1.20;;;18.00;66.10;;;;;;5073343;28;20059;-70
2022/10/06 11:58:12;;;;;;;4.82;1.60;;;17.90;66.00;;;;;;5074265;28;20080;-72
2022/10/06 12:00:41;;;;;;;8.07;2.45;;;17.90;66.00;;;;;;5072880;28;20131;-72
2022/10/06 12:03:49;;;;;;;18.75;4.32;;;17.90;66.10;;;;;;5072992;28;20048;-72
2022/10/06 12:07:05;;;;;;;60.20;14.90;;;17.90;66.00;;;;;;5073577;28;20056;-72
2022/10/06 12:09:51;;;;;;;54.53;14.33;;;17.90;66.00;;;;;;5073676;28;20056;-71
2022/10/06 12:12:53;;;;;;;129.55;30.27;;;17.90;66.10;;;;;;5072913;28;20487;-72
2022/10/06 12:15:41;;;;;;;81.88;16.77;;;17.90;66.10;;;;;;5073086;28;20060;-70
2022/10/06 12:18:30;;;;;;;82.05;19.00;;;17.90;66.10;;;;;;5073514;28;20044;-70
2022/10/06 12:21:09;;;;;;;110.35;25.83;;;17.90;66.10;;;;;;5071748;28;20135;-70
2022/10/06 12:23:43;;;;;;;100.78;23.65;;;17.90;66.10;;;;;;5073321;28;20044;-70
2022/10/06 12:26:18;;;;;;;124.07;27.70;;;17.90;66.10;;;;;;5073410;28;20053;-71
2022/10/06 12:28:50;;;;;;;121.50;29.15;;;17.90;66.10;;;;;;5072473;28;20060;-70
2022/10/06 12:31:28;;;;;;;122.22;27.27;;;17.90;66.70;;;;;;5073258;28;20053;-71
2022/10/06 12:33:55;;;;;;;119.55;28.55;;;17.90;66.10;;;;;;5073436;28;20412;-70
2022/10/06 12:36:22;;;;;;;121.28;29.05;;;17.90;66.20;;;;;;5072014;28;20059;-72
2022/10/06 12:39:05;;;;;;;136.90;33.47;;;17.90;66.10;;;;;;5071790;28;20074;-72
2022/10/06 12:41:54;;;;;;;155.20;34.33;;;17.90;66.10;;;;;;5070957;28;20390;-72
2022/10/06 12:44:23;;;;;;;155.27;36.63;;;18.00;66.30;;;;;;5069109;28;20075;-72
2022/10/06 12:46:50;;;;;;;178.48;39.75;;;17.90;66.30;;;;;;5071488;28;20565;-72
2022/10/06 12:49:40;;;;;;;166.13;40.08;;;18.00;66.40;;;;;;5071573;28;20056;-72
2022/10/06 12:52:33;;;;;;;157.20;39.85;;;18.00;66.40;;;;;;5071437;28;20131;-72
2022/10/06 12:55:07;;;;;;;160.60;38.30;;;18.00;66.50;;;;;;5068289;28;20044;-72
2022/10/06 12:57:44;;;;;;;153.73;38.92;;;18.00;66.50;;;;;;5068881;28;20059;-72
2022/10/06 13:00:23;;;;;;;141.65;36.90;;;18.00;66.40;;;;;;5070925;28;20044;-72
2022/10/06 13:02:52;;;;;;;147.23;37.35;;;18.00;66.40;;;;;;5072137;28;20048;-72
2022/10/06 13:05:19;;;;;;;142.82;36.47;;;18.00;66.50;;;;;;5071948;28;20196;-72
2022/10/06 13:07:55;;;;;;;151.95;36.80;;;18.00;66.50;;;;;;5070791;28;20052;-72
2022/10/06 13:10:22;;;;;;;132.27;36.33;;;18.00;66.50;;;;;;5071353;28;20438;-71
2022/10/06 13:12:51;;;;;;;141.05;39.30;;;18.00;66.50;;;;;;5072018;28;20044;-72